Edmonton City Centre Airport, Alberta

Past 24 Hour Conditions

This table is a summary of hourly weather conditions for the past 24 hours. This summary includes the following parameters: temperature, humidity, dew point, wind speed and direction, air pressure, visibility and/or wind chill and humidex.
Date / Time
(MDT)
Conditions Temp (°C) Humidity (%) Dew Point (°C) Wind (km/h) Pressure (kPa) Visibility (km)
28 August 2014
19:00 Sunny 19 38 4 NW 15 101.5 15
18:00 Mainly Sunny 20 34 4 WNW 9 101.5 15
17:00 Partly Cloudy 20 35 4 W 9 101.5 15
16:00 Partly Cloudy 18 49 8 NW 9 101.5 15
15:00 Sunny 18 52 8 WNW 4 101.5 15
14:00 Sunny 17 55 7 NNW 11 101.6 15
13:00 Sunny 17 60 9 NW 11 101.6 15
12:00 Sunny 14 62 7 NW 13 101.6 15
11:00 Sunny 15 62 8 NW 17 gust 28 101.6 15
10:00 Sunny 14 63 8 WNW 19 gust 28 101.5 15
9:00 Sunny 14 66 8 W 19 101.5 15
8:00 Sunny 14 77 10 W 15 101.5 15
7:00 Sunny 13   83 10 WNW 13 101.4 15
6:00 Clear 13   85 11 WNW 19 101.4 15
5:00 Clear 14 85 11 W 19 101.4 15
4:00 Mostly Cloudy 14 85 12 W 19 gust 28 101.3 15
3:00 Light Rain 15 81 12 WSW 19 gust 30 101.3 15
2:00 Partly Cloudy 15 79 11 W 22 101.3 15
1:00 Mainly Clear 15 79 11 WSW 15 101.2 15
00:00 Light Rain 15 82 12 SSW 17 101.2 15
27 August 2014
23:00 Mostly Cloudy 15 82 12 SSW 11 101.2 15
22:00 Mostly Cloudy 15 80 12 SSW 7 101.3 15
21:00 Light Rain 15 76 11 W 11 101.4 8
20:00 Partly Cloudy 18 63 11 NW 17 gust 37 101.3 15
19:00 Sunny 21   46 9 NW 32 101.2 15
N/A
Not available
 ↑ 
Highest temperature
 ↓ 
Lowest temperature

If you require additional historical weather information, please visit Climate Data Online.